Time;durP1;ratioP1;P1;durP2;ratioP2;P2;SDS_P1;SDS_P2;PMS_P1;PMS_P2;Temp;Humidity;BMP_temperature;BMP_pressure;BME280_temperature;BME280_humidity;BME280_pressure;Samples;Min_cycle;Max_cycle;Signal;HPM_P1;HPM_P2
2024/03/23 00:01:48;;;;;;;;;64.33;48.33;;;;;5.56;100.00;99288.28;6302253;20;2870227;-45
2024/03/23 00:04:18;;;;;;;;;55.67;45.67;;;;;5.80;100.00;99279.09;6301606;20;2859835;-45
2024/03/23 00:06:48;;;;;;;;;59.00;48.00;;;;;5.82;100.00;99271.91;6304832;20;2853417;-44
2024/03/23 00:09:17;;;;;;;;;58.50;46.50;;;;;5.41;100.00;99274.75;6272280;20;2872152;-45
2024/03/23 00:11:48;;;;;;;;;59.00;45.33;;;;;4.88;100.00;99274.56;6272861;20;2877555;-45
2024/03/23 00:14:17;;;;;;;;;49.00;39.50;;;;;4.46;100.00;99271.06;6303347;20;2875338;-49
2024/03/23 00:16:47;;;;;;;;;42.50;38.00;;;;;4.16;100.00;99268.78;6270789;20;2852378;-51
2024/03/23 00:19:18;;;;;;;;;51.67;40.67;;;;;4.23;100.00;99265.88;6270989;20;2880443;-44
2024/03/23 00:21:48;;;;;;;;;44.33;39.33;;;;;5.11;100.00;99261.06;6303878;20;2861812;-45
2024/03/23 00:24:18;;;;;;;;;48.67;39.67;;;;;5.37;100.00;99264.31;6303971;20;3626452;-45
2024/03/23 00:26:48;;;;;;;;;55.00;42.50;;;;;5.24;100.00;99258.72;6303219;20;2847252;-46
2024/03/23 00:29:18;;;;;;;;;54.50;46.00;;;;;5.12;100.00;99251.28;6268869;20;2856556;-48
2024/03/23 00:31:47;;;;;;;;;57.50;44.50;;;;;5.26;100.00;99248.84;6266681;20;2499225;-46
2024/03/23 00:34:16;;;;;;;;;63.00;50.50;;;;;5.47;100.00;99245.16;6271535;20;2853390;-47
2024/03/23 00:36:46;;;;;;;;;63.00;49.50;;;;;5.50;100.00;99242.38;6270504;20;2865937;-49
2024/03/23 00:39:16;;;;;;;;;61.50;48.50;;;;;5.67;100.00;99243.34;6269608;20;2864864;-51
2024/03/23 00:41:46;;;;;;;;;65.00;49.67;;;;;5.96;100.00;99249.09;6274120;20;2888840;-46
2024/03/23 00:44:16;;;;;;;;;57.00;48.00;;;;;6.15;100.00;99240.06;6301086;20;2845054;-48
2024/03/23 00:46:45;;;;;;;;;53.50;45.00;;;;;5.60;100.00;99234.78;6271295;20;2845050;-48
2024/03/23 00:49:15;;;;;;;;;66.50;51.00;;;;;6.03;100.00;99239.81;6271439;20;2874254;-51
2024/03/23 00:51:45;;;;;;;;;61.67;48.00;;;;;6.04;100.00;99233.56;6269588;20;3623352;-49
2024/03/23 00:54:13;;;;;;;;;57.33;47.33;;;;;6.06;100.00;99234.34;6302147;20;2874238;-46
2024/03/23 00:56:41;;;;;;;;;61.50;49.00;;;;;6.13;100.00;99231.31;6299798;20;2858664;-47
2024/03/23 00:59:08;;;;;;;;;63.00;50.50;;;;;6.24;100.00;99221.88;6269733;20;2857648;-49
2024/03/23 01:01:37;;;;;;;;;67.67;52.33;;;;;6.23;100.00;99220.16;6270842;20;2878427;-46
2024/03/23 01:04:04;;;;;;;;;63.50;48.50;;;;;5.86;100.00;99212.19;6299485;20;2872161;-45
2024/03/23 01:06:32;;;;;;;;;63.67;50.00;;;;;5.67;100.00;99211.38;6270684;20;3622149;-48
2024/03/23 01:09:01;;;;;;;;;63.00;52.00;;;;;5.59;100.00;99209.09;6302124;20;3623241;-46
2024/03/23 01:11:29;;;;;;;;;66.00;51.67;;;;;5.80;100.00;99206.31;6302707;20;3634676;-45
2024/03/23 01:13:57;;;;;;;;;65.67;52.00;;;;;5.90;100.00;99208.44;6300856;20;3620055;-48
2024/03/23 01:16:25;;;;;;;;;61.50;48.50;;;;;5.71;100.00;99196.97;6300568;20;2871151;-48
2024/03/23 01:18:53;;;;;;;;;70.00;54.67;;;;;5.53;100.00;99190.78;6269310;20;3622135;-51
2024/03/23 01:21:21;;;;;;;;;57.50;48.00;;;;;5.68;100.00;99195.31;6302853;20;2859742;-46
2024/03/23 01:23:49;;;;;;;;;67.67;51.33;;;;;5.35;100.00;99192.53;6269158;20;3643044;-48
2024/03/23 01:26:18;;;;;;;;;64.33;51.33;;;;;5.25;100.00;99191.22;6300690;20;3631557;-47
2024/03/23 01:28:44;;;;;;;;;63.50;51.00;;;;;5.50;100.00;99186.47;6299303;20;2500282;-46
2024/03/23 01:31:13;;;;;;;;;68.33;52.33;;;;;5.62;100.00;99182.31;6269099;20;3624199;-48
2024/03/23 01:33:41;;;;;;;;;64.00;50.67;;;;;5.67;100.00;99182.09;6299132;20;3621106;-48
2024/03/23 01:36:09;;;;;;;;;67.00;51.33;;;;;5.52;100.00;99180.19;6302151;20;3615956;-48
2024/03/23 01:38:38;;;;;;;;;67.67;54.67;;;;;5.80;100.00;99175.22;6301219;20;3619084;-48
2024/03/23 01:41:06;;;;;;;;;66.00;51.33;;;;;5.71;100.00;99170.31;6303044;20;3636779;-51
2024/03/23 01:43:34;;;;;;;;;68.00;52.00;;;;;5.50;100.00;99167.81;6301082;20;2761401;-48
2024/03/23 01:46:02;;;;;;;;;63.33;51.00;;;;;5.51;100.00;99168.69;6299821;20;2872243;-46
2024/03/23 01:48:30;;;;;;;;;65.67;51.00;;;;;5.53;100.00;99171.25;6301323;20;3634689;-48
2024/03/23 01:50:59;;;;;;;;;61.00;48.50;;;;;5.25;100.00;99161.97;6305926;20;2869148;-46
2024/03/23 01:53:28;;;;;;;;;68.33;54.33;;;;;5.59;100.00;99160.31;6273428;20;2875391;-49
2024/03/23 01:55:57;;;;;;;;;66.00;52.00;;;;;5.55;100.00;99158.72;6304369;20;2868135;-45
2024/03/23 01:58:25;;;;;;;;;69.67;53.00;;;;;5.45;100.00;99164.53;6306765;20;3647194;-48
2024/03/23 02:00:54;;;;;;;;;64.00;50.33;;;;;5.46;100.00;99154.72;6305410;20;2880640;-48
2024/03/23 02:03:27;;;;;;;;;71.67;55.00;;;;;5.82;100.00;99169.78;6304964;20;3629518;-47
2024/03/23 02:05:56;;;;;;;;;58.67;46.33;;;;;5.21;100.00;99149.72;6302713;20;3628781;-46
2024/03/23 02:08:24;;;;;;;;;66.50;51.00;;;;;5.25;100.00;99151.31;6304649;20;2684645;-48
2024/03/23 02:10:52;;;;;;;;;65.67;50.67;;;;;5.37;100.00;99150.72;6307464;20;2881781;-48
2024/03/23 02:13:21;;;;;;;;;67.33;52.00;;;;;5.67;100.00;99158.13;6305000;20;3637897;-46
2024/03/23 02:15:49;;;;;;;;;68.00;52.00;;;;;5.24;100.00;99146.94;6301802;20;2767056;-48
2024/03/23 02:18:16;;;;;;;;;58.50;46.50;;;;;5.22;100.00;99146.13;6304514;20;2860843;-47
2024/03/23 02:20:45;;;;;;;;;69.67;53.00;;;;;5.37;100.00;99145.41;6275117;20;3639925;-48
2024/03/23 02:23:15;;;;;;;;;59.00;45.33;;;;;5.35;100.00;99135.75;6304453;20;2866964;-47
2024/03/23 02:25:44;;;;;;;;;65.67;50.67;;;;;5.55;100.00;99137.41;6303544;20;2879478;-48
2024/03/23 02:28:13;;;;;;;;;67.67;51.33;;;;;5.35;100.00;99131.28;6305394;20;3648202;-46
2024/03/23 02:30:40;;;;;;;;;60.50;48.50;;;;;5.54;100.00;99130.38;6305830;20;2856580;-48
2024/03/23 02:33:08;;;;;;;;;62.50;48.50;;;;;5.37;100.00;99121.44;6275359;20;2861805;-48
2024/03/23 02:35:36;;;;;;;;;62.67;48.00;;;;;5.33;100.00;99130.50;6274150;20;2876388;-48
2024/03/23 02:38:04;;;;;;;;;64.00;50.33;;;;;5.45;100.00;99131.69;6305092;20;2877408;-47
2024/03/23 02:40:33;;;;;;;;;66.00;50.00;;;;;5.49;100.00;99122.63;6307079;20;3626287;-49
2024/03/23 02:43:02;;;;;;;;;65.33;49.33;;;;;5.46;100.00;99125.44;6305156;20;2879545;-49
2024/03/23 02:45:30;;;;;;;;;66.00;51.33;;;;;5.60;100.00;99122.94;6305784;20;3627366;-48
2024/03/23 02:47:59;;;;;;;;;65.67;50.33;;;;;5.59;100.00;99123.88;6304354;20;2873381;-47
2024/03/23 02:50:26;;;;;;;;;64.00;49.50;;;;;5.35;100.00;99115.31;6307301;20;2864865;-47
2024/03/23 02:52:54;;;;;;;;;62.00;50.00;;;;;5.42;100.00;99115.88;6272895;20;2851518;-48
2024/03/23 02:55:22;;;;;;;;;67.00;51.33;;;;;5.44;100.00;99109.53;6273990;20;2881635;-47
2024/03/23 02:57:51;;;;;;;;;66.33;50.00;;;;;5.20;100.00;99105.44;6306428;20;2881836;-48
2024/03/23 03:00:19;;;;;;;;;62.00;49.67;;;;;5.22;100.00;99106.22;6303626;20;2875409;-49
2024/03/23 03:02:47;;;;;;;;;65.33;51.33;;;;;5.09;100.00;99097.97;6304324;20;3627475;-49
2024/03/23 03:05:16;;;;;;;;;69.67;52.00;;;;;5.28;100.00;99097.94;6302482;20;3642990;-48
2024/03/23 03:07:44;;;;;;;;;67.00;51.67;;;;;5.29;100.00;99096.97;6305365;20;3628501;-48
2024/03/23 03:10:12;;;;;;;;;61.50;49.00;;;;;5.49;100.00;99096.00;6305524;20;2861772;-47
2024/03/23 03:12:40;;;;;;;;;71.00;53.00;;;;;5.34;100.00;99086.09;6273018;20;3649499;-49
2024/03/23 03:15:09;;;;;;;;;64.67;50.00;;;;;5.21;100.00;99091.16;6304981;20;2876410;-50
2024/03/23 03:17:36;;;;;;;;;63.00;49.00;;;;;5.36;100.00;99090.41;6303424;20;2861743;-51
2024/03/23 03:20:06;;;;;;;;;63.67;51.33;;;;;5.14;100.00;99084.44;6272011;20;2872151;-48
2024/03/23 03:22:34;;;;;;;;;69.67;52.33;;;;;5.09;100.00;99091.78;6304809;20;3645156;-47
2024/03/23 03:25:03;;;;;;;;;66.33;53.33;;;;;5.02;100.00;99084.09;6301436;20;2865371;-47
2024/03/23 03:27:31;;;;;;;;;69.67;55.00;;;;;5.00;100.00;99088.66;6301985;20;3627795;-48
2024/03/23 03:30:05;;;;;;;;;66.67;51.67;;;;;5.10;100.00;99093.50;6302729;20;3627387;-52
2024/03/23 03:32:33;;;;;;;;;59.50;49.50;;;;;5.12;100.00;99078.34;6300044;20;2854529;-48
2024/03/23 03:35:02;;;;;;;;;66.00;53.00;;;;;4.81;100.00;99082.47;6267677;20;2868143;-50
2024/03/23 03:37:30;;;;;;;;;69.33;52.67;;;;;4.92;100.00;99077.50;6272219;20;3634744;-48
2024/03/23 03:39:58;;;;;;;;;66.33;50.67;;;;;5.25;100.00;99084.78;6304283;20;2871112;-49
2024/03/23 03:42:26;;;;;;;;;62.00;50.00;;;;;5.05;100.00;99086.63;6304460;20;2860731;-51
2024/03/23 03:44:54;;;;;;;;;64.67;51.00;;;;;5.07;100.00;99076.75;6269833;20;2873191;-51
2024/03/23 03:47:23;;;;;;;;;62.33;48.67;;;;;4.82;100.00;99079.75;6303957;20;3604610;-50
2024/03/23 03:49:51;;;;;;;;;60.00;48.00;;;;;5.44;100.00;99080.25;6304782;20;2855563;-48
2024/03/23 03:52:19;;;;;;;;;60.50;48.50;;;;;5.13;100.00;99082.72;6302596;20;2864009;-48
2024/03/23 03:54:46;;;;;;;;;58.50;45.00;;;;;5.24;100.00;99072.41;6271916;20;2869028;-46
2024/03/23 03:57:14;;;;;;;;;58.67;46.00;;;;;5.16;100.00;99071.91;6272902;20;2863836;-50
2024/03/23 03:59:42;;;;;;;;;58.00;48.50;;;;;5.50;100.00;99074.63;6303115;20;2847501;-48
2024/03/23 04:02:10;;;;;;;;;64.67;51.67;;;;;5.36;100.00;99074.44;6272268;20;2876255;-48
2024/03/23 04:04:39;;;;;;;;;58.67;47.00;;;;;5.25;100.00;99071.47;6301078;20;2854657;-49
2024/03/23 04:07:07;;;;;;;;;62.67;48.00;;;;;5.31;100.00;99070.28;6302755;20;3628460;-46
2024/03/23 04:09:35;;;;;;;;;63.00;50.00;;;;;5.12;100.00;99070.34;6304362;20;3612840;-47
2024/03/23 04:12:04;;;;;;;;;62.67;48.00;;;;;4.84;100.00;99066.34;6303169;20;2879593;-46
2024/03/23 04:14:32;;;;;;;;;63.50;50.50;;;;;4.72;100.00;99059.00;6299375;20;2866010;-48
2024/03/23 04:17:00;;;;;;;;;59.33;46.67;;;;;4.66;100.00;99061.91;6272974;20;2865939;-49
2024/03/23 04:19:29;;;;;;;;;66.67;48.33;;;;;4.90;100.00;99063.44;6302415;20;3625283;-48
2024/03/23 04:21:56;;;;;;;;;60.00;49.00;;;;;5.36;100.00;99060.28;6303410;20;2859671;-46
2024/03/23 04:24:26;;;;;;;;;64.33;50.67;;;;;6.13;100.00;99063.41;6270039;20;2872171;-47
2024/03/23 04:26:54;;;;;;;;;61.33;48.67;;;;;6.92;100.00;99053.72;6303340;20;3619010;-47
2024/03/23 04:29:22;;;;;;;;;59.00;47.50;;;;;7.51;100.00;99062.78;6303392;20;2874330;-46
2024/03/23 04:31:50;;;;;;;;;58.00;45.00;;;;;7.87;100.00;99056.16;6274011;20;2870169;-49
2024/03/23 04:34:19;;;;;;;;;57.67;47.00;;;;;8.01;100.00;99050.84;6300453;20;3600319;-46
2024/03/23 04:36:47;;;;;;;;;59.67;48.00;;;;;8.22;100.00;99054.00;6302816;20;3611713;-46
2024/03/23 04:39:16;;;;;;;;;62.67;48.00;;;;;8.26;100.00;99050.19;6303237;20;3644020;-48
2024/03/23 04:41:44;;;;;;;;;53.67;45.00;;;;;8.46;100.00;99046.28;6302650;20;2857551;-46
2024/03/23 04:44:12;;;;;;;;;57.00;45.00;;;;;8.52;100.00;99045.03;6302269;20;3614950;-46
2024/03/23 04:46:41;;;;;;;;;59.00;48.33;;;;;8.59;100.00;99050.88;6304016;20;3620178;-49
2024/03/23 04:49:09;;;;;;;;;59.00;46.00;;;;;8.65;100.00;99042.44;6302186;20;3619028;-49
2024/03/23 04:51:38;;;;;;;;;54.33;44.33;;;;;8.81;100.00;99048.53;6302242;20;2862817;-47
2024/03/23 04:54:06;;;;;;;;;57.67;46.67;;;;;8.79;100.00;99047.75;6300194;20;2883745;-46
2024/03/23 04:56:36;;;;;;;;;57.67;45.67;;;;;8.83;100.00;99048.44;6303304;20;2865968;-46
2024/03/23 04:59:05;;;;;;;;;59.33;45.67;;;;;9.02;100.00;99049.81;6304033;20;3625261;-46
2024/03/23 05:01:33;;;;;;;;;54.33;44.00;;;;;9.07;100.00;99052.19;6301995;20;3610794;-51
2024/03/23 05:04:01;;;;;;;;;49.50;41.50;;;;;9.26;100.00;99051.81;6300262;20;2850347;-51
2024/03/23 05:06:30;;;;;;;;;63.33;47.33;;;;;9.45;100.00;99048.78;6272014;20;3637780;-47
2024/03/23 05:08:58;;;;;;;;;56.00;45.00;;;;;9.33;100.00;99046.94;6302349;20;2858781;-48
2024/03/23 05:11:27;;;;;;;;;57.33;44.67;;;;;9.47;100.00;99052.22;6302763;20;2870178;-46
2024/03/23 05:13:55;;;;;;;;;52.33;43.67;;;;;9.72;100.00;99038.03;6299713;20;2867149;-47
2024/03/23 05:16:23;;;;;;;;;53.33;42.67;;;;;9.94;100.00;99041.91;6300788;20;3620054;-48
2024/03/23 05:18:52;;;;;;;;;54.67;43.00;;;;;10.06;100.00;99044.59;6298319;20;3614894;-47
2024/03/23 05:21:20;;;;;;;;;55.00;45.00;;;;;9.92;100.00;99043.81;6301731;20;3630581;-50
2024/03/23 05:23:48;;;;;;;;;56.67;45.67;;;;;10.05;100.00;99044.69;6302262;20;3624205;-46
2024/03/23 05:26:17;;;;;;;;;53.00;43.67;;;;;10.15;100.00;99042.22;6307737;20;2865145;-48
2024/03/23 05:28:45;;;;;;;;;51.67;43.00;;;;;10.31;100.00;99038.38;6308116;20;2851337;-46
2024/03/23 05:31:27;;;;;;;;;51.00;41.00;;;;;10.50;100.00;99042.44;6307242;20;3604389;-49
2024/03/23 05:33:56;;;;;;;;;50.00;40.33;;;;;10.41;100.00;99035.91;6304494;20;3629425;-48
2024/03/23 05:36:24;;;;;;;;;55.33;43.00;;;;;10.38;100.00;99036.13;6306338;20;3629394;-48
2024/03/23 05:38:53;;;;;;;;;52.33;41.67;;;;;10.60;100.00;99040.81;6305249;20;2860771;-47
2024/03/23 05:41:23;;;;;;;;;51.00;42.33;;;;;10.53;100.00;99040.41;6307196;20;2861914;-51
2024/03/23 05:43:51;;;;;;;;;50.00;40.00;;;;;11.01;100.00;99034.25;6305230;20;2846217;-50
2024/03/23 05:46:20;;;;;;;;;44.67;36.67;;;;;11.26;98.86;99038.66;6306843;20;2853954;-50
2024/03/23 05:48:47;;;;;;;;;51.00;41.67;;;;;11.03;99.99;99037.66;6303482;20;2860750;-48
2024/03/23 05:51:16;;;;;;;;;51.00;41.33;;;;;10.93;100.00;99031.28;6307081;20;2854489;-48
2024/03/23 05:53:44;;;;;;;;;48.00;40.00;;;;;10.89;100.00;99027.94;6304257;20;2849247;-50
2024/03/23 05:56:13;;;;;;;;;51.33;42.00;;;;;11.04;100.00;99023.28;6271356;20;3614935;-49
2024/03/23 05:58:41;;;;;;;;;47.33;40.00;;;;;10.93;100.00;99031.28;6306000;20;2861845;-48
2024/03/23 06:01:10;;;;;;;;;51.33;40.00;;;;;11.15;100.00;99031.38;6305059;20;3611897;-51
2024/03/23 06:03:38;;;;;;;;;53.00;41.33;;;;;11.40;99.20;99032.22;6305273;20;3611949;-51
2024/03/23 06:06:11;;;;;;;;;49.50;39.00;;;;;11.54;97.61;99034.75;6308650;20;2843019;-51
2024/03/23 06:08:39;;;;;;;;;47.00;39.50;;;;;11.42;97.99;99033.81;6274794;20;2868998;-57
2024/03/23 06:11:07;;;;;;;;;48.00;41.00;;;;;11.50;96.77;99033.25;6276215;20;2852374;-47
2024/03/23 06:13:35;;;;;;;;;49.67;41.33;;;;;11.54;96.51;99021.31;6274588;20;2862905;-48
2024/03/23 06:16:03;;;;;;;;;47.00;39.00;;;;;11.55;96.88;99028.38;6304507;20;2841015;-50
2024/03/23 06:18:31;;;;;;;;;48.00;40.00;;;;;11.43;96.03;99030.19;6273553;20;2845115;-45
2024/03/23 06:20:59;;;;;;;;;48.50;40.50;;;;;11.63;96.22;99025.97;6275636;20;2847124;-49
2024/03/23 06:23:26;;;;;;;;;48.50;40.00;;;;;11.71;94.95;99021.84;6274394;20;2869045;-47
2024/03/23 06:25:54;;;;;;;;;56.67;44.67;;;;;11.76;95.11;99022.34;6275423;20;3609677;-51
2024/03/23 06:28:23;;;;;;;;;49.00;42.00;;;;;11.99;93.51;99026.81;6274249;20;2866016;-46
2024/03/23 06:30:51;;;;;;;;;50.00;40.50;;;;;11.88;95.46;99016.06;6305875;20;2862810;-45
2024/03/23 06:33:18;;;;;;;;;47.50;41.00;;;;;12.33;92.01;99023.31;6273087;20;2839829;-44
2024/03/23 06:35:52;;;;;;;;;47.67;39.00;;;;;12.23;93.76;99012.41;6271737;20;2855603;-48
2024/03/23 06:38:19;;;;;;;;;49.00;40.00;;;;;12.05;93.27;99026.34;6308336;20;3582560;-46
2024/03/23 06:40:50;;;;;;;;;52.00;43.33;;;;;12.07;94.17;99024.38;6274602;20;2849339;-46
2024/03/23 06:43:18;;;;;;;;;52.33;42.67;;;;;12.27;92.27;99016.59;6308927;20;3615258;-49
2024/03/23 06:45:54;;;;;;;;;56.33;45.00;;;;;12.39;91.96;99012.91;6271600;20;3607659;-47
2024/03/23 06:48:21;;;;;;;;;54.00;44.00;;;;;11.95;92.53;99014.56;6297425;20;3631564;-47
2024/03/23 06:50:49;;;;;;;;;51.50;42.00;;;;;12.18;93.45;99010.09;6270764;20;2856737;-51
2024/03/23 06:53:17;;;;;;;;;52.33;42.33;;;;;12.30;91.53;99002.88;6273755;20;2852483;-47
2024/03/23 06:55:55;;;;;;;;;48.67;40.00;;;;;12.29;90.12;99002.00;6304641;20;2848317;-49
2024/03/23 06:58:25;;;;;;;;;50.67;41.67;;;;;12.23;90.97;99007.03;6302744;20;2857680;-52
2024/03/23 07:00:53;;;;;;;;;52.00;41.00;;;;;12.49;89.71;99003.13;6303706;20;3621304;-51
2024/03/23 07:03:21;;;;;;;;;49.33;41.33;;;;;12.45;89.76;98996.28;6304451;20;2863876;-48
2024/03/23 07:05:50;;;;;;;;;47.67;41.67;;;;;12.33;90.32;98999.94;6298405;20;2861852;-51
2024/03/23 07:08:21;;;;;;;;;44.00;38.00;;;;;12.66;88.80;99001.72;6304295;20;2856960;-47
2024/03/23 07:10:49;;;;;;;;;50.67;42.00;;;;;12.63;88.49;98995.75;6277340;20;2860734;-47
2024/03/23 07:13:17;;;;;;;;;48.00;38.67;;;;;12.72;87.48;99000.41;6305143;20;3605486;-46
2024/03/23 07:15:52;;;;;;;;;53.67;44.33;;;;;12.96;87.35;98990.31;6304753;20;3616959;-48
2024/03/23 07:18:21;;;;;;;;;47.00;40.00;;;;;13.78;83.32;98986.19;6274397;20;3624269;-47
2024/03/23 07:20:59;;;;;;;;;46.67;40.33;;;;;13.62;83.10;98989.34;6309610;20;3591898;-46
2024/03/23 07:23:27;;;;;;;;;45.67;38.33;;;;;13.78;82.04;98987.03;6274745;20;3614892;-45
2024/03/23 07:26:04;;;;;;;;;45.00;37.33;;;;;13.88;81.46;98987.09;6302741;20;3590873;-43
2024/03/23 07:28:33;;;;;;;;;38.33;32.67;;;;;13.95;80.72;98976.59;6303342;20;3603414;-45
2024/03/23 07:31:10;;;;;;;;;45.33;37.33;;;;;14.68;77.18;98974.69;6270401;20;2854644;-47
2024/03/23 07:33:48;;;;;;;;;47.67;38.67;;;;;14.93;76.11;98976.03;6305722;20;3603410;-45
2024/03/23 07:36:16;;;;;;;;;43.67;34.00;;;;;15.88;68.79;98979.91;6275207;20;3632595;-44
2024/03/23 07:38:47;;;;;;;;;34.00;28.33;;;;;15.43;71.80;98973.22;6307578;20;3605560;-49
2024/03/23 07:41:18;;;;;;;;;39.00;34.00;;;;;16.53;66.21;98977.22;6276117;20;2863824;-49
2024/03/23 07:43:48;;;;;;;;;39.67;35.33;;;;;16.55;66.41;98975.22;6306161;20;3578812;-46
2024/03/23 07:46:18;;;;;;;;;40.33;34.00;;;;;16.39;66.07;98971.31;6271552;20;2860816;-48
2024/03/23 07:48:46;;;;;;;;;40.67;33.33;;;;;16.47;65.33;98962.44;6308420;20;3608695;-47
2024/03/23 07:51:20;;;;;;;;;37.33;33.00;;;;;17.20;62.97;98965.16;6278159;20;3598194;-46
2024/03/23 07:53:49;;;;;;;;;34.67;32.33;;;;;16.75;64.03;98957.88;6274254;20;3602371;-46
2024/03/23 07:56:18;;;;;;;;;40.67;33.00;;;;;15.94;65.49;98955.78;6310090;20;3614885;-47
2024/03/23 07:58:48;;;;;;;;;35.50;32.00;;;;;16.59;64.41;98957.69;6295752;20;3588815;-49
2024/03/23 08:01:17;;;;;;;;;48.50;36.50;;;;;16.77;62.64;98958.59;6276053;20;3559622;-49
2024/03/23 08:03:46;;;;;;;;;40.00;32.33;;;;;16.47;63.21;98954.31;6273813;20;3613870;-51
2024/03/23 08:06:19;;;;;;;;;33.00;32.00;;;;;17.00;62.76;98960.88;6273186;20;3595103;-46
2024/03/23 08:09:01;;;;;;;;;34.33;31.67;;;;;17.39;61.92;98958.72;6272589;20;2854543;-49
2024/03/23 08:11:31;;;;;;;;;36.00;32.67;;;;;18.09;59.89;98960.63;6307502;20;3610829;-47
2024/03/23 08:13:59;;;;;;;;;32.67;31.67;;;;;18.21;58.75;98949.31;6275639;20;3573164;-49
2024/03/23 08:16:27;;;;;;;;;29.67;28.33;;;;;17.98;58.37;98938.16;6271927;20;3578927;-47
2024/03/23 08:18:57;;;;;;;;;27.00;25.67;;;;;18.11;57.98;98934.16;6307247;20;3592020;-47
2024/03/23 08:21:26;;;;;;;;;28.33;28.33;;;;;18.41;56.45;98935.50;6275478;20;3585675;-51
2024/03/23 08:23:53;;;;;;;;;33.67;30.33;;;;;18.79;56.42;98922.41;6276952;20;3581549;-49
2024/03/23 08:26:22;;;;;;;;;24.00;20.00;;;;;19.13;53.75;98916.03;6272728;20;3573219;-52
2024/03/23 08:28:49;;;;;;;;;27.00;27.00;;;;;19.08;54.20;98906.47;6307438;20;3587850;-50
2024/03/23 08:31:17;;;;;;;;;29.33;27.00;;;;;18.07;56.25;98906.47;6276193;20;3603410;-50
2024/03/23 08:33:44;;;;;;;;;29.33;27.67;;;;;17.91;55.90;98914.53;6275995;20;3598172;-50
2024/03/23 08:36:12;;;;;;;;;23.33;21.00;;;;;17.99;56.42;98914.56;6270769;20;3581580;-50
2024/03/23 08:38:40;;;;;;;;;27.67;25.00;;;;;17.92;56.32;98913.50;6275389;20;3595055;-50
2024/03/23 08:41:10;;;;;;;;;28.33;24.00;;;;;18.29;54.69;98904.19;6275885;20;3582578;-49
2024/03/23 08:43:40;;;;;;;;;27.00;24.67;;;;;18.11;55.69;98896.97;6274318;20;3591944;-54
2024/03/23 08:46:16;;;;;;;;;28.00;26.67;;;;;18.61;54.08;98892.56;6271758;20;3582602;-54
2024/03/23 08:48:46;;;;;;;;;27.33;21.33;;;;;18.77;54.29;98889.06;6274467;20;3592008;-49
2024/03/23 08:51:16;;;;;;;;;21.33;21.33;;;;;18.39;54.77;98888.59;6278259;20;3581554;-51
2024/03/23 08:53:45;;;;;;;;;24.33;21.67;;;;;18.70;54.14;98882.59;6273525;20;3579489;-52
2024/03/23 08:56:13;;;;;;;;;25.67;24.33;;;;;18.39;54.71;98875.00;6274537;20;3582657;-53
2024/03/23 08:58:40;;;;;;;;;17.33;15.67;;;;;19.02;51.54;98877.22;6277417;20;3551341;-50
2024/03/23 09:01:13;;;;;;;;;20.00;19.00;;;;;18.92;51.41;98884.69;6279774;20;3572165;-49
2024/03/23 09:03:41;;;;;;;;;19.67;18.00;;;;;19.02;51.32;98879.94;6279038;20;3571330;-48
2024/03/23 09:06:14;;;;;;;;;14.00;14.00;;;;;19.43;50.30;98871.81;6312827;20;2487779;-52
2024/03/23 09:08:41;;;;;;;;;14.50;14.50;;;;;19.44;50.49;98878.94;6277230;20;2810739;-47
2024/03/23 09:11:12;;;;;;;;;14.00;14.00;;;;;19.44;48.65;98865.34;6275447;20;2492039;-49
2024/03/23 09:13:41;;;;;;;;;13.00;10.00;;;;;19.06;46.83;98859.56;6306558;20;3518066;-52
2024/03/23 09:16:09;;;;;;;;;12.67;10.00;;;;;19.19;45.26;98855.47;6306434;20;3514867;-48
2024/03/23 09:18:38;;;;;;;;;10.67;9.00;;;;;19.24;45.41;98844.91;6310084;20;2774249;-52
2024/03/23 09:21:13;;;;;;;;;12.00;9.50;;;;;19.34;45.84;98834.72;6313046;20;2785894;-49
2024/03/23 09:23:43;;;;;;;;;11.00;11.00;;;;;19.37;45.92;98828.06;6279686;20;3516138;-49
2024/03/23 09:26:10;;;;;;;;;10.00;10.00;;;;;19.25;45.29;98831.16;6282399;20;2789903;-52
2024/03/23 09:28:37;;;;;;;;;12.67;11.67;;;;;19.01;45.56;98823.84;6278361;20;3518047;-48
2024/03/23 09:31:11;;;;;;;;;9.00;9.00;;;;;19.56;44.94;98830.41;6305202;20;3457673;-49
2024/03/23 09:33:39;;;;;;;;;8.67;8.67;;;;;19.79;43.19;98827.00;6310781;20;2752356;-51
2024/03/23 09:36:08;;;;;;;;;7.40;7.40;;;;;20.32;41.70;98830.88;6334872;20;2746154;-49
2024/03/23 09:38:36;;;;;;;;;7.33;6.00;;;;;20.26;40.95;98834.31;6276163;20;2748248;-49
2024/03/23 09:41:09;;;;;;;;;8.00;6.20;;;;;19.72;40.60;98826.84;6337414;20;2739890;-49
2024/03/23 09:43:38;;;;;;;;;6.20;6.00;;;;;19.62;41.73;98821.56;6335418;20;2737771;-51
2024/03/23 09:46:06;;;;;;;;;8.00;5.40;;;;;19.43;41.11;98825.53;6337125;20;2731696;-48
2024/03/23 09:48:34;;;;;;;;;9.60;7.00;;;;;19.52;40.56;98826.34;6334298;20;2749232;-48
2024/03/23 09:51:03;;;;;;;;;6.00;5.20;;;;;19.36;40.40;98820.94;6304604;20;2748603;-49
2024/03/23 09:53:32;;;;;;;;;9.00;7.20;;;;;20.18;39.75;98818.84;6303126;20;2736863;-54
2024/03/23 09:55:59;;;;;;;;;9.00;7.33;;;;;20.12;40.41;98816.84;6309130;20;2742951;-53
2024/03/23 09:58:28;;;;;;;;;8.00;8.00;;;;;20.10;40.28;98817.00;6335955;20;2733618;-50
2024/03/23 10:00:55;;;;;;;;;12.00;8.00;;;;;20.07;40.19;98808.34;6307342;20;3472265;-51
2024/03/23 10:03:23;;;;;;;;;8.40;6.80;;;;;20.29;39.98;98806.72;6332502;20;2743009;-51
2024/03/23 10:06:04;;;;;;;;;8.40;7.40;;;;;20.69;38.66;98805.63;6334519;20;2729509;-49
2024/03/23 10:08:33;;;;;;;;;8.20;8.20;;;;;21.17;38.73;98798.13;6303025;20;2750336;-52
2024/03/23 10:11:16;;;;;;;;;7.40;7.40;;;;;21.08;38.56;98799.19;6304828;20;2750833;-51
2024/03/23 10:13:46;;;;;;;;;7.33;7.33;;;;;20.79;38.91;98798.06;6309985;20;2735733;-53
2024/03/23 10:16:23;;;;;;;;;7.33;7.33;;;;;20.51;40.34;98783.22;6306781;20;2741981;-52
2024/03/23 10:18:50;;;;;;;;;8.67;7.00;;;;;20.91;40.89;98784.84;6306984;20;2735661;-53
2024/03/23 10:21:19;;;;;;;;;11.00;8.00;;;;;20.18;40.48;98783.44;6308425;20;2765046;-49
2024/03/23 10:23:49;;;;;;;;;8.00;7.00;;;;;19.80;39.45;98769.63;6330768;20;2622262;-51
2024/03/23 10:26:29;;;;;;;;;5.00;5.00;;;;;20.16;39.55;98774.56;6311176;20;2737818;-50
2024/03/23 10:29:04;;;;;;;;;9.40;7.00;;;;;21.07;39.17;98785.75;6330359;20;2759657;-52
2024/03/23 10:31:34;;;;;;;;;7.00;7.00;;;;;21.42;38.86;98781.50;6302716;20;2748699;-48
2024/03/23 10:34:04;;;;;;;;;8.20;7.40;;;;;21.70;38.33;98774.38;6302326;20;2738945;-52
2024/03/23 10:36:34;;;;;;;;;6.40;6.40;;;;;22.19;37.32;98774.84;6300156;20;2734823;-55
2024/03/23 10:39:03;;;;;;;;;7.60;7.60;;;;;21.34;38.44;98762.47;6333407;20;2753475;-51
2024/03/23 10:41:32;;;;;;;;;5.40;5.40;;;;;21.44;38.77;98760.34;6302378;20;2742022;-49
2024/03/23 10:44:02;;;;;;;;;10.60;7.60;;;;;21.00;40.25;98767.38;6299982;20;2767122;-49
2024/03/23 10:46:32;;;;;;;;;6.00;6.00;;;;;20.52;40.58;98757.66;6324127;20;2733836;-49
2024/03/23 10:48:59;;;;;;;;;7.33;6.33;;;;;21.00;40.82;98750.16;6309901;20;2744047;-47
2024/03/23 10:51:28;;;;;;;;;7.60;7.40;;;;;21.07;40.04;98742.94;6334360;20;2751350;-49
2024/03/23 10:53:58;;;;;;;;;6.33;6.33;;;;;21.24;39.62;98747.19;6283611;20;2746149;-53
2024/03/23 10:56:26;;;;;;;;;7.33;6.33;;;;;21.35;39.21;98742.28;6309968;20;2729449;-50
2024/03/23 10:58:54;;;;;;;;;6.60;5.60;;;;;21.31;38.76;98730.06;6334649;20;2738932;-47
2024/03/23 11:01:22;;;;;;;;;7.80;6.20;;;;;21.54;39.08;98730.00;6334543;20;2733725;-51
2024/03/23 11:03:53;;;;;;;;;6.60;6.60;;;;;22.19;38.15;98725.63;6334550;20;2730552;-50
2024/03/23 11:06:40;;;;;;;;;9.33;8.00;;;;;22.03;37.47;98713.84;6310641;20;2750603;-49
2024/03/23 11:09:35;;;;;;;;;7.00;7.00;;;;;20.97;39.68;98715.03;6310422;20;2740913;-48
2024/03/23 11:12:24;;;;;;;;;12.67;9.00;;;;;21.09;40.30;98705.38;6307924;20;3487805;-51
2024/03/23 11:15:11;;;;;;;;;9.67;8.00;;;;;20.64;40.29;98704.41;6307201;20;2770169;-48